createdAt,value
2022-10-01T00:00:15.479Z,961.83
2022-10-01T00:01:15.545Z,961.83
2022-10-01T00:02:15.445Z,961.76
2022-10-01T00:03:15.504Z,961.76
2022-10-01T00:04:15.426Z,961.73
2022-10-01T00:05:15.393Z,961.72
2022-10-01T00:06:15.405Z,961.68
2022-10-01T00:07:15.534Z,961.67
2022-10-01T00:08:15.352Z,961.64
2022-10-01T00:09:15.338Z,961.73
2022-10-01T00:10:15.317Z,961.66
2022-10-01T00:11:15.335Z,961.68
2022-10-01T00:12:15.280Z,961.64
2022-10-01T00:13:16.263Z,961.62
2022-10-01T00:14:15.254Z,961.63
2022-10-01T00:15:15.224Z,961.62
2022-10-01T00:16:15.332Z,961.59
2022-10-01T00:17:15.210Z,961.67
2022-10-01T00:18:15.189Z,961.58
2022-10-01T00:19:15.177Z,961.65
2022-10-01T00:20:15.139Z,961.61
2022-10-01T00:21:15.158Z,961.63
2022-10-01T00:22:15.117Z,961.57
2022-10-01T00:23:15.114Z,961.60
2022-10-01T00:24:15.061Z,961.62
2022-10-01T00:25:15.068Z,961.59
2022-10-01T00:26:15.068Z,961.55
2022-10-01T00:27:15.038Z,961.52
2022-10-01T00:28:15.040Z,961.51
2022-10-01T00:29:15.002Z,961.48
2022-10-01T00:30:14.965Z,961.47
2022-10-01T00:31:15.017Z,961.46
2022-10-01T00:32:14.934Z,961.48
2022-10-01T00:33:14.918Z,961.44
2022-10-01T00:34:14.925Z,961.48
2022-10-01T00:35:14.890Z,961.43
2022-10-01T00:36:14.890Z,961.46
2022-10-01T00:37:14.852Z,961.42
2022-10-01T00:38:14.852Z,961.48
2022-10-01T00:39:14.813Z,961.32
2022-10-01T00:40:14.810Z,961.41
2022-10-01T00:41:14.837Z,961.38
2022-10-01T00:42:14.769Z,961.40
2022-10-01T00:43:14.747Z,961.38
2022-10-01T00:44:14.733Z,961.34
2022-10-01T00:45:14.713Z,961.40
2022-10-01T00:46:14.808Z,961.38
2022-10-01T00:47:14.679Z,961.41
2022-10-01T00:48:14.663Z,961.41
2022-10-01T00:49:14.659Z,961.38
2022-10-01T00:50:14.628Z,961.39
2022-10-01T00:51:14.656Z,961.34
2022-10-01T00:52:14.592Z,961.35
2022-10-01T00:53:14.587Z,961.40
2022-10-01T00:54:14.561Z,961.40
2022-10-01T00:55:14.549Z,961.39
2022-10-01T00:56:14.559Z,961.34
2022-10-01T00:57:14.513Z,961.29
2022-10-01T00:58:14.500Z,961.32
2022-10-01T00:59:14.477Z,961.26
2022-10-01T01:00:14.461Z,961.28
2022-10-01T01:01:14.553Z,961.27
2022-10-01T01:02:14.481Z,961.20
2022-10-01T01:03:14.433Z,961.21
2022-10-01T01:04:14.416Z,961.21
2022-10-01T01:05:14.383Z,961.25
2022-10-01T01:06:14.395Z,961.15
2022-10-01T01:07:14.353Z,961.21
2022-10-01T01:08:14.336Z,961.12
2022-10-01T01:09:14.317Z,961.17
2022-10-01T01:10:14.304Z,961.13
2022-10-01T01:11:14.320Z,961.10
2022-10-01T01:12:14.273Z,961.11
2022-10-01T01:13:14.241Z,961.16
2022-10-01T01:14:14.241Z,961.07
2022-10-01T01:15:14.221Z,961.10
2022-10-01T01:16:14.290Z,961.02
2022-10-01T01:17:14.193Z,961.07
2022-10-01T01:18:14.164Z,961.10
2022-10-01T01:19:14.154Z,961.09
2022-10-01T01:20:14.128Z,961.05
2022-10-01T01:21:15.158Z,961.11
2022-10-01T01:22:14.105Z,961.00
2022-10-01T01:23:14.098Z,961.01
2022-10-01T01:24:14.066Z,960.99
2022-10-01T01:25:14.048Z,961.01
2022-10-01T01:26:14.080Z,960.96
2022-10-01T01:27:14.022Z,960.99
2022-10-01T01:28:14.158Z,960.93
2022-10-01T01:29:13.981Z,960.95
2022-10-01T01:30:13.974Z,960.92
2022-10-01T01:31:14.011Z,960.88
2022-10-01T01:32:14.946Z,960.91
2022-10-01T01:33:14.923Z,960.84
2022-10-01T01:34:13.894Z,960.88
2022-10-01T01:35:13.876Z,960.87
2022-10-01T01:36:13.892Z,960.90
2022-10-01T01:37:13.840Z,960.74
2022-10-01T01:38:13.828Z,960.75
2022-10-01T01:39:13.824Z,960.68
2022-10-01T01:40:13.791Z,960.66
2022-10-01T01:41:13.785Z,960.58
2022-10-01T01:42:13.807Z,960.66
2022-10-01T01:43:13.759Z,960.65
2022-10-01T01:44:13.726Z,960.67
2022-10-01T01:45:13.717Z,960.70
2022-10-01T01:46:13.728Z,960.63
2022-10-01T01:47:13.710Z,960.66
2022-10-01T01:48:13.659Z,960.60
2022-10-01T01:49:13.641Z,960.65
2022-10-01T01:50:13.648Z,960.59
2022-10-01T01:51:13.610Z,960.55
2022-10-01T01:52:13.655Z,960.66
2022-10-01T01:53:13.574Z,960.62
2022-10-01T01:54:13.556Z,960.58
2022-10-01T01:55:14.566Z,960.48
2022-10-01T01:56:13.533Z,960.65
2022-10-01T01:57:13.551Z,960.62
2022-10-01T01:58:13.516Z,960.58
2022-10-01T01:59:13.469Z,960.58
2022-10-01T02:00:13.456Z,960.49
2022-10-01T02:01:13.454Z,960.69
2022-10-01T02:02:13.524Z,960.55
2022-10-01T02:03:13.407Z,960.59
2022-10-01T02:04:13.400Z,960.55
2022-10-01T02:05:13.380Z,960.52
2022-10-01T02:06:13.351Z,960.53
2022-10-01T02:07:13.362Z,960.52
2022-10-01T02:08:13.316Z,960.50
2022-10-01T02:09:13.300Z,960.55
2022-10-01T02:10:13.288Z,960.55
2022-10-01T02:11:13.275Z,960.52
2022-10-01T02:12:13.294Z,960.53
2022-10-01T02:13:13.242Z,960.45
2022-10-01T02:14:13.215Z,960.47
2022-10-01T02:15:13.208Z,960.50
2022-10-01T02:16:13.223Z,960.43
2022-10-01T02:17:13.195Z,960.47
2022-10-01T02:18:13.154Z,960.47
2022-10-01T02:19:13.134Z,960.45
2022-10-01T02:20:14.120Z,960.50
2022-10-01T02:21:13.097Z,960.55
2022-10-01T02:22:13.117Z,960.47
2022-10-01T02:23:13.068Z,960.47
2022-10-01T02:24:13.042Z,960.51
2022-10-01T02:25:13.017Z,960.48
2022-10-01T02:26:13.022Z,960.50
2022-10-01T02:27:13.031Z,960.44
2022-10-01T02:28:13.020Z,960.41
2022-10-01T02:29:12.953Z,960.31
2022-10-01T02:30:12.952Z,960.36
2022-10-01T02:31:12.986Z,960.34
2022-10-01T02:32:12.939Z,960.33
2022-10-01T02:33:12.885Z,960.39
2022-10-01T02:34:13.115Z,960.35
2022-10-01T02:35:12.853Z,960.29
2022-10-01T02:36:12.852Z,960.36
2022-10-01T02:37:12.846Z,960.35
2022-10-01T02:38:13.803Z,960.26
2022-10-01T02:39:12.797Z,960.20
2022-10-01T02:40:12.772Z,960.19
2022-10-01T02:41:12.771Z,960.14
2022-10-01T02:42:12.787Z,960.16
2022-10-01T02:43:12.733Z,960.19
2022-10-01T02:44:12.730Z,960.10
2022-10-01T02:45:12.703Z,960.17
2022-10-01T02:46:12.778Z,960.10
2022-10-01T02:47:12.714Z,960.13
2022-10-01T02:48:12.651Z,960.04
2022-10-01T02:49:12.621Z,960.03
2022-10-01T02:50:12.600Z,959.95
2022-10-01T02:54:45.390Z,959.89
2022-10-01T02:55:24.391Z,959.80
2022-10-01T02:56:24.378Z,959.82
2022-10-01T02:57:24.408Z,959.81
2022-10-01T02:58:25.492Z,959.82
2022-10-01T02:59:26.479Z,959.74
2022-10-01T03:00:25.463Z,959.75
2022-10-01T03:01:25.474Z,959.70
2022-10-01T03:02:25.576Z,959.69
2022-10-01T03:03:25.417Z,959.71
2022-10-01T03:04:25.395Z,959.70
2022-10-01T03:05:25.377Z,959.65
2022-10-01T03:06:25.393Z,959.66
2022-10-01T03:07:25.374Z,959.54
2022-10-01T03:08:25.322Z,959.52
2022-10-01T03:09:25.307Z,959.57
2022-10-01T03:10:25.302Z,959.52
2022-10-01T03:11:25.269Z,959.53
2022-10-01T03:12:25.281Z,959.45
2022-10-01T03:13:25.247Z,959.49
2022-10-01T03:14:25.239Z,959.48
2022-10-01T03:15:25.201Z,959.46
2022-10-01T03:16:25.273Z,959.43
2022-10-01T03:17:25.209Z,959.36
2022-10-01T03:18:25.162Z,959.32
2022-10-01T03:19:25.141Z,959.26
2022-10-01T03:20:25.126Z,959.19
2022-10-01T03:21:25.118Z,959.29
2022-10-01T03:22:25.255Z,959.17
2022-10-01T03:23:25.112Z,959.21
2022-10-01T03:24:25.060Z,959.31
2022-10-01T03:25:25.036Z,959.11
2022-10-01T03:26:25.027Z,959.07
2022-10-01T03:27:25.038Z,959.05
2022-10-01T03:28:25.043Z,959.12
2022-10-01T03:29:24.962Z,959.05
2022-10-01T03:30:24.945Z,959.06
2022-10-01T03:31:24.956Z,959.09
2022-10-01T03:32:24.985Z,958.92
2022-10-01T03:33:24.908Z,959.03
2022-10-01T03:34:24.878Z,959.14
2022-10-01T03:35:24.866Z,959.19
2022-10-01T03:36:24.839Z,959.12
2022-10-01T03:37:24.854Z,958.96
2022-10-01T03:38:24.815Z,958.98
2022-10-01T03:39:24.800Z,958.97
2022-10-01T03:40:24.767Z,958.84
2022-10-01T03:41:24.772Z,959.00
2022-10-01T03:42:24.785Z,959.02
2022-10-01T03:43:24.734Z,958.97
2022-10-01T03:44:24.714Z,958.97
2022-10-01T03:45:24.791Z,958.97
2022-10-01T03:46:24.703Z,959.00
2022-10-01T03:47:24.706Z,959.02
2022-10-01T03:48:24.654Z,958.93
2022-10-01T03:49:24.628Z,958.93
2022-10-01T03:50:24.622Z,959.08
2022-10-01T03:51:24.595Z,959.02
2022-10-01T03:52:25.450Z,958.93
2022-10-01T03:53:24.562Z,958.97
2022-10-01T03:54:24.546Z,958.91
2022-10-01T03:55:24.527Z,958.81
2022-10-01T03:56:24.565Z,958.89
2022-10-01T03:57:24.512Z,959.00
2022-10-01T03:58:24.481Z,959.07
2022-10-01T03:59:24.472Z,958.94
2022-10-01T04:00:24.443Z,958.80
2022-10-01T04:01:24.484Z,958.90
2022-10-01T04:02:24.559Z,958.95
2022-10-01T04:03:24.397Z,958.94
2022-10-01T04:04:24.385Z,958.92
2022-10-01T04:05:24.373Z,958.92
2022-10-01T04:06:24.346Z,958.98
2022-10-01T04:07:24.385Z,958.98
2022-10-01T04:08:24.586Z,958.89
2022-10-01T04:09:25.291Z,958.87
2022-10-01T04:10:24.269Z,959.01
2022-10-01T04:11:24.251Z,958.92
2022-10-01T04:12:24.275Z,959.01
2022-10-01T04:13:24.223Z,958.84
2022-10-01T04:14:24.239Z,958.96
2022-10-01T04:15:24.189Z,958.89
2022-10-01T04:16:24.209Z,958.84
2022-10-01T04:17:24.204Z,958.85
2022-10-01T04:18:24.154Z,958.79
2022-10-01T04:19:24.142Z,958.73
2022-10-01T04:20:24.151Z,958.71
2022-10-01T04:21:24.096Z,958.78
2022-10-01T04:22:24.208Z,958.72
2022-10-01T04:23:24.074Z,958.76
2022-10-01T04:24:24.034Z,958.65
2022-10-01T04:25:24.030Z,958.64
2022-10-01T04:26:24.012Z,958.67
2022-10-01T04:27:24.024Z,958.66
2022-10-01T04:28:24.019Z,958.72
2022-10-01T04:29:24.063Z,958.64
2022-10-01T04:30:23.969Z,958.70
2022-10-01T04:31:23.995Z,958.73
2022-10-01T04:32:23.973Z,958.48
2022-10-01T04:33:23.894Z,958.55
2022-10-01T04:34:23.873Z,958.49
2022-10-01T04:35:23.863Z,958.60
2022-10-01T04:36:23.858Z,958.50
2022-10-01T04:37:23.874Z,958.44
2022-10-01T04:38:23.813Z,958.43
2022-10-01T04:39:23.815Z,958.34
2022-10-01T04:40:23.775Z,958.60
2022-10-01T04:41:23.757Z,958.48
2022-10-01T04:42:23.811Z,958.38
2022-10-01T04:43:23.746Z,958.33
2022-10-01T04:44:23.715Z,958.38
2022-10-01T04:45:23.690Z,958.37
2022-10-01T04:46:23.741Z,958.44
2022-10-01T04:47:23.688Z,958.41
2022-10-01T04:48:23.641Z,958.33
2022-10-01T04:49:23.641Z,958.22
2022-10-01T04:50:23.617Z,958.36
2022-10-01T04:51:23.652Z,958.36
2022-10-01T04:52:23.614Z,958.26
2022-10-01T04:53:23.588Z,958.27
2022-10-01T04:54:23.539Z,958.50
2022-10-01T04:55:23.533Z,958.25
2022-10-01T04:56:23.527Z,958.22
2022-10-01T04:57:23.535Z,958.23
2022-10-01T04:58:23.473Z,957.94
2022-10-01T04:59:23.462Z,958.21
2022-10-01T05:00:23.477Z,958.24
2022-10-01T05:01:23.498Z,958.39
2022-10-01T05:02:23.536Z,958.24
2022-10-01T05:03:23.385Z,958.36
2022-10-01T05:04:23.386Z,958.35
2022-10-01T05:05:23.355Z,958.19
2022-10-01T05:06:23.377Z,958.08
2022-10-01T05:07:23.358Z,958.06
2022-10-01T05:08:23.291Z,958.01
2022-10-01T05:09:23.285Z,957.94
2022-10-01T05:10:23.280Z,957.97
2022-10-01T05:11:23.250Z,957.97
2022-10-01T05:12:24.652Z,957.96
2022-10-01T05:13:24.219Z,957.99
2022-10-01T05:14:23.209Z,958.06
2022-10-01T05:15:23.180Z,957.94
2022-10-01T05:16:23.232Z,957.87
2022-10-01T05:17:23.232Z,957.88
2022-10-01T05:18:23.140Z,957.98
2022-10-01T05:19:27.891Z,957.85
2022-10-01T05:20:24.109Z,958.03
2022-10-01T05:21:23.100Z,957.73
2022-10-01T05:22:23.110Z,957.50
2022-10-01T05:23:23.060Z,957.81
2022-10-01T05:24:23.042Z,957.76
2022-10-01T05:25:23.026Z,957.82
2022-10-01T05:26:23.008Z,957.85
2022-10-01T05:27:23.046Z,957.75
2022-10-01T05:28:23.013Z,957.75
2022-10-01T05:29:22.949Z,957.78
2022-10-01T05:30:22.937Z,957.93
2022-10-01T05:31:22.998Z,957.69
2022-10-01T05:32:23.035Z,957.59
2022-10-01T05:33:22.882Z,957.65
2022-10-01T05:34:22.870Z,957.45
2022-10-01T05:35:22.854Z,957.57
2022-10-01T05:36:22.834Z,957.63
2022-10-01T05:37:22.846Z,957.53
2022-10-01T05:38:22.848Z,957.53
2022-10-01T05:39:22.782Z,957.58
2022-10-01T05:40:22.769Z,957.72
2022-10-01T05:41:22.741Z,957.50
2022-10-01T05:42:22.802Z,957.48
2022-10-01T05:43:22.709Z,957.42
2022-10-01T05:44:22.702Z,957.32
2022-10-01T05:45:22.775Z,957.42
2022-10-01T05:46:22.657Z,957.54
2022-10-01T05:47:22.668Z,957.46
2022-10-01T05:48:22.620Z,957.15
2022-10-01T05:49:22.598Z,957.39
2022-10-01T05:50:22.586Z,957.47
2022-10-01T05:51:22.580Z,957.29
2022-10-01T05:52:22.611Z,957.05
2022-10-01T05:53:22.548Z,957.12
2022-10-01T05:54:22.541Z,957.03
2022-10-01T05:55:22.533Z,957.11
2022-10-01T05:56:22.499Z,957.00
2022-10-01T05:57:22.576Z,957.03
2022-10-01T05:58:22.462Z,956.97
2022-10-01T05:59:22.439Z,956.96
2022-10-01T06:00:22.418Z,956.92
2022-10-01T06:01:22.411Z,957.09
2022-10-01T06:02:22.549Z,956.82
2022-10-01T06:03:22.436Z,956.85
2022-10-01T06:04:22.367Z,956.89
2022-10-01T06:05:22.377Z,956.77
2022-10-01T06:06:22.335Z,957.04
2022-10-01T06:07:22.351Z,957.15
2022-10-01T06:08:22.347Z,956.58
2022-10-01T06:09:22.263Z,956.73
2022-10-01T06:10:22.264Z,956.54
2022-10-01T06:11:22.239Z,956.85
2022-10-01T06:12:22.265Z,956.58
2022-10-01T06:13:22.192Z,956.52
2022-10-01T06:14:22.196Z,956.66
2022-10-01T06:15:22.181Z,956.65
2022-10-01T06:16:22.190Z,956.72
2022-10-01T06:17:22.169Z,956.60
2022-10-01T06:18:22.134Z,956.78
2022-10-01T06:19:22.094Z,956.34
2022-10-01T06:20:22.077Z,956.48
2022-10-01T06:21:22.094Z,956.38
2022-10-01T06:22:22.105Z,956.68
2022-10-01T06:23:22.029Z,956.73
2022-10-01T06:24:21.999Z,956.72
2022-10-01T06:25:22.012Z,956.77
2022-10-01T06:26:21.965Z,956.59
2022-10-01T06:27:21.972Z,956.93
2022-10-01T06:28:22.051Z,956.69
2022-10-01T06:29:21.928Z,956.73
2022-10-01T06:30:21.933Z,956.78
2022-10-01T06:31:21.949Z,956.65
2022-10-01T06:32:21.902Z,956.32
2022-10-01T06:33:21.850Z,956.66
2022-10-01T06:34:21.837Z,956.63
2022-10-01T06:35:21.829Z,956.55
2022-10-01T06:36:21.797Z,956.73
2022-10-01T06:37:21.815Z,956.64
2022-10-01T06:38:21.756Z,956.45
2022-10-01T06:39:21.765Z,956.63
2022-10-01T06:40:21.719Z,956.71
2022-10-01T06:41:21.714Z,956.65
2022-10-01T06:42:21.727Z,956.63
2022-10-01T06:43:21.687Z,956.58
2022-10-01T06:44:21.683Z,956.46
2022-10-01T06:45:21.648Z,956.56
2022-10-01T06:46:21.705Z,956.65
2022-10-01T06:47:21.670Z,956.86
2022-10-01T06:48:21.615Z,956.93
2022-10-01T06:49:21.600Z,956.97
2022-10-01T06:50:21.585Z,957.04
2022-10-01T06:51:21.570Z,957.00
2022-10-01T06:52:21.582Z,957.04
2022-10-01T06:53:21.638Z,956.96
2022-10-01T06:54:21.523Z,956.94
2022-10-01T06:55:21.490Z,956.97
2022-10-01T06:56:21.460Z,956.99
2022-10-01T06:57:21.473Z,956.82
2022-10-01T06:58:21.456Z,957.09
2022-10-01T06:59:21.425Z,956.77
2022-10-01T07:00:21.407Z,956.84
2022-10-01T07:01:21.461Z,956.96
2022-10-01T07:02:21.485Z,957.04
2022-10-01T07:03:21.364Z,956.97
2022-10-01T07:04:21.339Z,957.23
2022-10-01T07:05:21.343Z,957.03
2022-10-01T07:06:21.315Z,956.88
2022-10-01T07:07:21.330Z,957.05
2022-10-01T07:08:21.271Z,957.00
2022-10-01T07:09:21.245Z,957.17
2022-10-01T07:10:21.253Z,956.95
2022-10-01T07:11:21.224Z,957.00
2022-10-01T07:12:21.222Z,956.69
2022-10-01T07:13:21.199Z,957.00
2022-10-01T07:14:21.200Z,956.88
2022-10-01T07:15:21.145Z,956.94
2022-10-01T07:16:21.184Z,956.85
2022-10-01T07:17:21.138Z,956.72
2022-10-01T07:18:21.094Z,956.85
2022-10-01T07:19:21.065Z,956.87
2022-10-01T07:20:21.063Z,956.88
2022-10-01T07:21:21.045Z,956.96
2022-10-01T07:22:21.061Z,956.94
2022-10-01T07:23:21.015Z,957.03
2022-10-01T07:24:20.988Z,956.97
2022-10-01T07:25:20.984Z,956.93
2022-10-01T07:26:20.945Z,957.04
2022-10-01T07:27:20.992Z,957.04
2022-10-01T07:28:20.943Z,957.00
2022-10-01T07:29:20.910Z,957.04
2022-10-01T07:30:21.887Z,957.08
2022-10-01T07:31:20.911Z,957.04
2022-10-01T07:32:20.888Z,957.04
2022-10-01T07:33:20.891Z,956.97
2022-10-01T07:34:20.827Z,956.98
2022-10-01T07:35:20.800Z,957.03
2022-10-01T07:36:20.803Z,957.05
2022-10-01T07:37:20.799Z,957.17
2022-10-01T07:38:20.749Z,957.04
2022-10-01T07:39:20.730Z,957.22
2022-10-01T07:40:20.718Z,957.14
2022-10-01T07:41:20.698Z,957.11
2022-10-01T07:42:20.754Z,957.11
2022-10-01T07:43:20.649Z,957.12
2022-10-01T07:44:20.650Z,957.14
2022-10-01T07:45:20.621Z,957.15
2022-10-01T07:46:20.675Z,957.21
2022-10-01T07:47:20.668Z,957.18
2022-10-01T07:48:20.578Z,957.12
2022-10-01T07:49:20.544Z,957.14
2022-10-01T07:50:20.540Z,957.16
2022-10-01T07:51:20.504Z,957.20
2022-10-01T07:52:20.523Z,957.21
2022-10-01T07:53:20.486Z,957.16
2022-10-01T07:54:20.471Z,957.11
2022-10-01T07:55:20.482Z,957.06
2022-10-01T07:56:20.457Z,957.06
2022-10-01T07:57:20.450Z,957.09
2022-10-01T07:58:20.393Z,957.06
2022-10-01T07:59:20.396Z,957.09
2022-10-01T08:00:20.376Z,957.12
2022-10-01T08:01:20.397Z,957.12
2022-10-01T08:02:20.407Z,957.03
2022-10-01T08:03:20.351Z,957.01
2022-10-01T08:04:20.307Z,957.11
2022-10-01T08:05:20.318Z,957.12
2022-10-01T08:06:24.681Z,957.04
2022-10-01T08:07:22.271Z,957.11
2022-10-01T08:08:21.233Z,957.11
2022-10-01T08:09:20.207Z,957.16
2022-10-01T08:10:20.202Z,957.10
2022-10-01T08:11:20.195Z,957.17
2022-10-01T08:12:20.192Z,957.26
2022-10-01T08:13:20.151Z,957.18
2022-10-01T08:14:20.163Z,957.34
2022-10-01T08:15:20.125Z,957.25
2022-10-01T08:16:20.144Z,957.31
2022-10-01T08:17:20.110Z,957.24
2022-10-01T08:18:20.093Z,957.24
2022-10-01T08:19:20.041Z,957.24
2022-10-01T08:20:20.044Z,957.25
2022-10-01T08:21:20.043Z,957.32
2022-10-01T08:22:20.056Z,957.28
2022-10-01T08:23:20.005Z,957.31
2022-10-01T08:24:19.967Z,957.27
2022-10-01T08:25:19.957Z,957.40
2022-10-01T08:26:19.955Z,957.27
2022-10-01T08:27:19.946Z,957.24
2022-10-01T08:28:19.953Z,957.36
2022-10-01T08:29:19.890Z,957.28
2022-10-01T08:30:19.858Z,957.39
2022-10-01T08:31:19.886Z,957.36
2022-10-01T08:32:19.818Z,957.38
2022-10-01T08:33:19.826Z,957.39
2022-10-01T08:34:19.802Z,957.38
2022-10-01T08:35:19.793Z,957.48
2022-10-01T08:36:19.751Z,957.41
2022-10-01T08:37:19.745Z,957.34
2022-10-01T08:38:19.745Z,957.41
2022-10-01T08:39:19.710Z,957.46
2022-10-01T08:40:19.677Z,957.39
2022-10-01T08:41:23.116Z,957.41
2022-10-01T08:42:20.656Z,957.33
2022-10-01T08:43:19.731Z,957.37
2022-10-01T08:44:19.626Z,957.40
2022-10-01T08:45:19.609Z,957.30
2022-10-01T08:46:19.674Z,957.37
2022-10-01T08:47:19.569Z,957.40
2022-10-01T08:48:19.579Z,957.39
2022-10-01T08:49:19.538Z,957.48
2022-10-01T08:50:19.522Z,957.36
2022-10-01T08:51:19.503Z,957.36
2022-10-01T08:52:19.484Z,957.44
2022-10-01T08:53:19.494Z,957.43
2022-10-01T08:54:19.452Z,957.45
2022-10-01T08:55:19.455Z,957.43
2022-10-01T08:56:19.422Z,957.36
2022-10-01T08:57:19.387Z,957.38
2022-10-01T08:58:19.417Z,957.46
2022-10-01T08:59:20.030Z,957.48
2022-10-01T09:00:19.349Z,957.55
2022-10-01T09:01:19.359Z,957.47
2022-10-01T09:02:19.306Z,957.60
2022-10-01T09:03:19.322Z,957.53
2022-10-01T09:04:19.298Z,957.59
2022-10-01T09:05:19.264Z,957.64
2022-10-01T09:06:19.259Z,957.58
2022-10-01T09:07:19.226Z,957.53
2022-10-01T09:08:19.237Z,957.59
2022-10-01T09:09:19.189Z,957.59
2022-10-01T09:10:19.224Z,957.59
2022-10-01T09:11:19.176Z,957.67
2022-10-01T09:12:19.126Z,957.66
2022-10-01T09:13:19.141Z,957.59
2022-10-01T09:14:19.180Z,957.60
2022-10-01T09:15:19.083Z,957.58
2022-10-01T09:16:19.126Z,957.58
2022-10-01T09:17:19.068Z,957.57
2022-10-01T09:18:19.059Z,957.52
2022-10-01T09:19:19.025Z,957.61
2022-10-01T09:20:19.069Z,957.53
2022-10-01T09:21:18.976Z,957.59
2022-10-01T09:22:18.966Z,957.55
2022-10-01T09:23:18.992Z,957.55
2022-10-01T09:24:18.938Z,957.58
2022-10-01T09:25:18.935Z,957.55
2022-10-01T09:26:23.554Z,957.56
2022-10-01T09:27:20.898Z,957.60
2022-10-01T09:28:18.947Z,957.58
2022-10-01T09:29:18.866Z,957.49
2022-10-01T09:30:18.839Z,957.61
2022-10-01T09:31:18.853Z,957.54
2022-10-01T09:32:19.863Z,957.53
2022-10-01T09:33:18.783Z,957.55
2022-10-01T09:34:18.770Z,957.52
2022-10-01T09:35:18.750Z,957.52
2022-10-01T09:36:18.720Z,957.64
2022-10-01T09:37:19.752Z,957.56
2022-10-01T09:38:18.688Z,957.61
2022-10-01T09:39:18.672Z,957.60
2022-10-01T09:40:19.669Z,957.56
2022-10-01T09:41:18.648Z,957.58
2022-10-01T09:42:18.652Z,957.55
2022-10-01T09:43:18.623Z,957.53
2022-10-01T09:44:18.965Z,957.56
2022-10-01T09:45:19.585Z,957.56
2022-10-01T09:46:18.568Z,957.55
2022-10-01T09:47:18.538Z,957.63
2022-10-01T09:48:18.553Z,957.68
2022-10-01T09:49:18.515Z,957.68
2022-10-01T09:50:18.485Z,957.63
2022-10-01T09:51:18.457Z,957.67
2022-10-01T09:52:18.461Z,957.70
2022-10-01T09:53:18.467Z,957.67
2022-10-01T09:54:19.417Z,957.72
2022-10-01T09:55:18.447Z,957.68
2022-10-01T09:56:18.389Z,957.85
2022-10-01T09:57:19.416Z,957.82
2022-10-01T09:58:18.355Z,957.85
2022-10-01T09:59:18.332Z,957.78
2022-10-01T10:00:18.318Z,957.85
2022-10-01T10:01:18.293Z,957.85
2022-10-01T10:02:18.400Z,957.83
2022-10-01T10:03:18.361Z,957.86
2022-10-01T10:04:20.134Z,957.87
2022-10-01T10:05:19.240Z,957.86
2022-10-01T10:06:18.226Z,957.83
2022-10-01T10:07:18.225Z,957.89
2022-10-01T10:08:18.189Z,957.93
2022-10-01T10:09:18.170Z,957.92
2022-10-01T10:10:21.003Z,957.92
2022-10-01T10:11:19.144Z,957.94
2022-10-01T10:12:18.156Z,957.93
2022-10-01T10:13:18.105Z,957.91
2022-10-01T10:14:18.072Z,957.75
2022-10-01T10:15:18.106Z,957.83
2022-10-01T10:16:18.094Z,957.83
2022-10-01T10:17:18.087Z,957.82
2022-10-01T10:18:22.994Z,957.95
2022-10-01T10:19:19.009Z,957.94
2022-10-01T10:20:17.988Z,957.86
2022-10-01T10:21:17.973Z,957.85
2022-10-01T10:22:17.986Z,957.95
2022-10-01T10:23:17.923Z,957.88
2022-10-01T10:24:17.974Z,957.89
2022-10-01T10:25:17.895Z,957.97
2022-10-01T10:26:17.901Z,957.95
2022-10-01T10:27:17.906Z,957.96
2022-10-01T10:28:17.893Z,957.98
2022-10-01T10:29:17.847Z,957.98
2022-10-01T10:30:17.829Z,957.90
2022-10-01T10:31:17.833Z,957.94
2022-10-01T10:32:17.809Z,957.97
2022-10-01T10:33:17.824Z,957.93
2022-10-01T10:34:17.755Z,957.99
2022-10-01T10:35:17.730Z,957.86
2022-10-01T10:36:17.703Z,957.95
2022-10-01T10:37:17.712Z,957.91
2022-10-01T10:38:17.675Z,957.92
2022-10-01T10:39:17.673Z,957.84
2022-10-01T10:40:17.642Z,957.88
2022-10-01T10:41:17.630Z,957.88
2022-10-01T10:42:17.636Z,957.85
2022-10-01T10:43:17.606Z,957.86
2022-10-01T10:44:17.589Z,957.81
2022-10-01T10:45:17.587Z,957.86
2022-10-01T10:46:17.648Z,957.84
2022-10-01T10:47:17.538Z,957.91
2022-10-01T10:48:17.525Z,957.91
2022-10-01T10:49:17.495Z,957.78
2022-10-01T10:50:17.471Z,957.84
2022-10-01T10:51:17.483Z,957.85
2022-10-01T10:52:17.445Z,957.80
2022-10-01T10:53:17.458Z,957.87
2022-10-01T10:54:17.404Z,957.83
2022-10-01T10:55:17.366Z,957.85
2022-10-01T10:56:18.376Z,957.92
2022-10-01T10:57:17.343Z,957.90
2022-10-01T10:58:17.350Z,957.83
2022-10-01T10:59:17.309Z,957.86
2022-10-01T11:00:17.307Z,957.86
2022-10-01T11:01:17.320Z,957.84
2022-10-01T11:02:17.306Z,957.78
2022-10-01T11:03:17.303Z,957.85
2022-10-01T11:04:17.219Z,957.82
2022-10-01T11:05:17.216Z,957.80
2022-10-01T11:06:17.192Z,957.88
2022-10-01T11:07:17.184Z,957.87
2022-10-01T11:08:18.019Z,957.93
2022-10-01T11:09:18.137Z,957.90
2022-10-01T11:10:17.142Z,957.85
2022-10-01T11:11:17.116Z,957.80
2022-10-01T11:12:17.143Z,957.86
2022-10-01T11:13:17.068Z,957.86
2022-10-01T11:14:21.393Z,957.90
2022-10-01T11:15:19.040Z,957.87
2022-10-01T11:16:17.092Z,957.84
2022-10-01T11:17:17.024Z,957.96
2022-10-01T11:18:17.024Z,957.96
2022-10-01T11:19:16.965Z,957.98
2022-10-01T11:20:20.619Z,957.96
2022-10-01T11:21:17.919Z,957.98
2022-10-01T11:22:16.946Z,958.05
2022-10-01T11:23:16.890Z,958.05
2022-10-01T11:24:16.896Z,958.02
2022-10-01T11:25:16.867Z,957.99
2022-10-01T11:26:16.852Z,958.00
2022-10-01T11:27:16.827Z,958.09
2022-10-01T11:28:16.873Z,958.05
2022-10-01T11:29:16.802Z,958.12
2022-10-01T11:30:16.780Z,958.01
2022-10-01T11:31:16.823Z,958.15
2022-10-01T11:32:16.753Z,958.16
2022-10-01T11:33:16.751Z,958.16
2022-10-01T11:34:16.713Z,958.14
2022-10-01T11:35:16.703Z,958.21
2022-10-01T11:36:16.671Z,958.22
2022-10-01T11:37:16.666Z,958.20
2022-10-01T11:38:16.681Z,958.16
2022-10-01T11:39:16.629Z,958.21
2022-10-01T11:40:16.595Z,958.09
2022-10-01T11:41:16.577Z,958.16
2022-10-01T11:42:16.580Z,958.20
2022-10-01T11:43:16.563Z,958.14
2022-10-01T11:44:16.550Z,958.21
2022-10-01T11:45:16.517Z,958.18
2022-10-01T11:46:16.550Z,958.21
2022-10-01T11:47:16.480Z,958.09
2022-10-01T11:48:16.498Z,958.20
2022-10-01T11:49:16.429Z,958.21
2022-10-01T11:50:16.417Z,958.19
2022-10-01T11:51:16.421Z,958.17
2022-10-01T11:52:16.394Z,958.15
2022-10-01T11:53:16.385Z,958.14
2022-10-01T11:54:16.506Z,958.07
2022-10-01T11:55:16.336Z,958.12
2022-10-01T11:56:16.329Z,958.07
2022-10-01T11:57:16.300Z,958.14
2022-10-01T11:58:16.322Z,958.25
2022-10-01T11:59:16.268Z,958.24
2022-10-01T12:00:16.245Z,958.24
2022-10-01T12:01:16.231Z,958.23
2022-10-01T12:02:16.275Z,958.32
2022-10-01T12:03:16.245Z,958.31
2022-10-01T12:04:16.197Z,958.31
2022-10-01T12:05:16.184Z,958.30
2022-10-01T12:06:16.161Z,958.21
2022-10-01T12:07:16.151Z,958.33
2022-10-01T12:08:16.148Z,958.33
2022-10-01T12:09:16.097Z,958.25
2022-10-01T12:10:16.105Z,958.34
2022-10-01T12:11:16.102Z,958.31
2022-10-01T12:12:16.077Z,958.33
2022-10-01T12:13:16.073Z,958.37
2022-10-01T12:14:16.019Z,958.38
2022-10-01T12:15:16.079Z,958.40
2022-10-01T12:16:16.179Z,958.41
2022-10-01T12:17:15.999Z,958.30
2022-10-01T12:18:15.983Z,958.33
2022-10-01T12:19:15.947Z,958.37
2022-10-01T12:20:15.918Z,958.36
2022-10-01T12:21:15.947Z,958.31
2022-10-01T12:22:15.894Z,958.39
2022-10-01T12:23:15.953Z,958.40
2022-10-01T12:24:15.851Z,958.38
2022-10-01T12:25:15.838Z,958.34
2022-10-01T12:26:15.817Z,958.31
2022-10-01T12:27:15.814Z,958.32
2022-10-01T12:28:15.855Z,958.38
2022-10-01T12:29:15.765Z,958.32
2022-10-01T12:30:15.761Z,958.30
2022-10-01T12:31:15.799Z,958.35